createdAt,value
2017-09-27T00:01:11.043Z,16.70
2017-09-27T00:03:40.091Z,15.43
2017-09-27T00:06:09.161Z,16.47
2017-09-27T00:08:38.200Z,15.17
2017-09-27T00:11:07.259Z,15.50
2017-09-27T00:13:36.380Z,14.80
2017-09-27T00:16:05.554Z,18.47
2017-09-27T00:18:34.582Z,17.80
2017-09-27T00:21:03.621Z,16.93
2017-09-27T00:23:32.674Z,18.87
2017-09-27T00:26:01.743Z,20.17
2017-09-27T00:28:30.826Z,18.63
2017-09-27T00:30:59.862Z,18.07
2017-09-27T00:33:28.906Z,19.80
2017-09-27T00:35:58.851Z,22.70
2017-09-27T00:38:27.943Z,21.27
2017-09-27T00:40:56.990Z,21.60
2017-09-27T00:43:26.039Z,21.30
2017-09-27T00:45:55.082Z,22.00
2017-09-27T00:48:31.177Z,22.40
2017-09-27T00:51:00.472Z,23.53
2017-09-27T00:53:29.510Z,21.13
2017-09-27T00:55:58.566Z,23.20
2017-09-27T00:58:27.627Z,21.13
2017-09-27T01:00:56.726Z,19.37
2017-09-27T01:03:25.851Z,22.50
2017-09-27T01:05:55.096Z,23.27
2017-09-27T01:08:24.151Z,23.60
2017-09-27T01:10:53.199Z,24.53
2017-09-27T01:13:22.259Z,24.77
2017-09-27T01:15:51.298Z,26.10
2017-09-27T01:18:20.352Z,28.00
2017-09-27T01:20:49.468Z,26.87
2017-09-27T01:23:18.595Z,25.97
2017-09-27T01:25:47.651Z,26.67
2017-09-27T01:28:16.695Z,24.37
2017-09-27T01:30:45.748Z,20.40
2017-09-27T01:33:14.790Z,19.17
2017-09-27T01:35:43.832Z,18.17
2017-09-27T01:38:12.900Z,16.63
2017-09-27T01:40:41.979Z,17.83
2017-09-27T01:43:12.931Z,19.07
2017-09-27T01:45:41.966Z,19.40
2017-09-27T01:48:11.086Z,19.93
2017-09-27T01:50:40.219Z,21.10
2017-09-27T01:53:09.254Z,24.10
2017-09-27T01:55:38.304Z,19.60
2017-09-27T01:58:07.335Z,21.00
2017-09-27T02:00:36.382Z,21.43
2017-09-27T02:03:05.411Z,25.93
2017-09-27T02:05:34.499Z,61.00
2017-09-27T02:08:03.558Z,22.53
2017-09-27T02:10:32.624Z,22.47
2017-09-27T02:13:01.662Z,42.37
2017-09-27T02:15:30.698Z,31.27
2017-09-27T02:17:59.755Z,36.80
2017-09-27T02:20:28.800Z,33.97
2017-09-27T02:22:57.874Z,37.17
2017-09-27T02:25:26.919Z,33.67
2017-09-27T02:27:55.967Z,26.73
2017-09-27T02:30:25.047Z,35.83
2017-09-27T02:32:54.114Z,35.53
2017-09-27T02:35:23.156Z,30.47
2017-09-27T02:37:52.246Z,41.20
2017-09-27T02:40:21.254Z,31.70
2017-09-27T02:42:50.304Z,32.17
2017-09-27T02:45:19.352Z,30.57
2017-09-27T02:47:48.399Z,27.77
2017-09-27T02:50:19.471Z,29.67
2017-09-27T02:52:48.517Z,20.33
2017-09-27T02:55:17.567Z,18.83
2017-09-27T02:57:46.620Z,19.10
2017-09-27T03:00:15.711Z,23.17
2017-09-27T03:02:44.757Z,22.70
2017-09-27T03:05:13.920Z,24.53
2017-09-27T03:07:43.038Z,21.77
2017-09-27T03:10:16.447Z,27.30
2017-09-27T03:12:46.454Z,29.00
2017-09-27T03:15:15.550Z,29.73
2017-09-27T03:17:44.594Z,28.53
2017-09-27T03:20:14.561Z,40.23
2017-09-27T03:22:43.594Z,30.83
2017-09-27T03:25:12.669Z,34.73
2017-09-27T03:27:41.759Z,31.07
2017-09-27T03:30:10.783Z,28.60
2017-09-27T03:32:39.853Z,35.97
2017-09-27T03:35:08.967Z,33.07
2017-09-27T03:37:38.011Z,35.27
2017-09-27T03:40:07.080Z,29.93
2017-09-27T03:42:36.251Z,29.93
2017-09-27T03:45:06.294Z,30.57
2017-09-27T03:47:35.346Z,30.20
2017-09-27T03:50:04.391Z,31.70
2017-09-27T03:52:33.439Z,30.00
2017-09-27T03:55:02.504Z,27.37
2017-09-27T03:57:31.554Z,28.43
2017-09-27T04:00:00.608Z,28.07
2017-09-27T04:02:29.646Z,28.00
2017-09-27T04:04:58.709Z,28.07
2017-09-27T04:07:27.748Z,24.50
2017-09-27T04:09:56.814Z,27.53
2017-09-27T04:12:25.856Z,28.00
2017-09-27T04:14:54.927Z,29.20
2017-09-27T04:17:23.974Z,26.13
2017-09-27T04:19:53.043Z,26.43
2017-09-27T04:22:22.062Z,25.10
2017-09-27T04:24:51.104Z,23.93
2017-09-27T04:27:20.239Z,23.63
2017-09-27T04:29:49.276Z,24.50
2017-09-27T04:32:18.391Z,22.03
2017-09-27T04:34:47.461Z,23.23
2017-09-27T04:37:17.474Z,22.87
2017-09-27T04:39:46.551Z,21.20
2017-09-27T04:42:15.575Z,22.17
2017-09-27T04:44:44.642Z,21.30
2017-09-27T04:47:13.697Z,23.83
2017-09-27T04:49:42.754Z,23.37
2017-09-27T04:52:11.779Z,22.00
2017-09-27T04:54:40.839Z,20.47
2017-09-27T04:57:10.931Z,19.47
2017-09-27T04:59:39.992Z,21.10
2017-09-27T05:02:09.057Z,21.40
2017-09-27T05:04:38.106Z,20.63
2017-09-27T05:07:07.157Z,21.93
2017-09-27T05:09:36.246Z,20.43
2017-09-27T05:12:05.355Z,23.17
2017-09-27T05:14:34.466Z,25.67
2017-09-27T05:17:03.529Z,27.73
2017-09-27T05:19:32.602Z,24.90
2017-09-27T05:22:01.876Z,25.20
2017-09-27T05:24:31.807Z,23.40
2017-09-27T05:27:00.903Z,23.80
2017-09-27T05:29:30.366Z,22.50
2017-09-27T05:32:00.699Z,22.23
2017-09-27T05:34:31.251Z,21.10
2017-09-27T05:37:00.307Z,21.97
2017-09-27T05:39:29.379Z,18.23
2017-09-27T05:41:58.460Z,19.50
2017-09-27T05:44:27.517Z,20.20
2017-09-27T05:46:56.823Z,18.03
2017-09-27T05:49:25.865Z,15.70
2017-09-27T05:51:54.927Z,16.30
2017-09-27T05:54:23.985Z,16.77
2017-09-27T05:56:53.040Z,18.47
2017-09-27T05:59:22.109Z,17.00
2017-09-27T06:01:51.159Z,17.07
2017-09-27T06:04:20.229Z,15.63
2017-09-27T06:06:49.285Z,15.90
2017-09-27T06:09:18.369Z,16.27
2017-09-27T06:11:47.417Z,16.50
2017-09-27T06:14:16.462Z,15.00
2017-09-27T06:16:45.519Z,16.53
2017-09-27T06:19:14.656Z,16.47
2017-09-27T06:21:43.682Z,16.47
2017-09-27T06:24:12.780Z,16.80
2017-09-27T06:26:41.862Z,17.37
2017-09-27T06:29:10.919Z,17.20
2017-09-27T06:31:39.963Z,16.77
2017-09-27T06:34:09.047Z,17.70
2017-09-27T06:36:38.106Z,16.03
2017-09-27T06:39:08.247Z,14.30
2017-09-27T06:41:37.296Z,14.67
2017-09-27T06:44:06.394Z,14.60
2017-09-27T06:46:35.478Z,14.20
2017-09-27T06:49:04.527Z,13.80
2017-09-27T06:51:33.579Z,14.70
2017-09-27T06:54:02.630Z,13.83
2017-09-27T06:56:31.703Z,14.00
2017-09-27T06:59:00.751Z,13.90
2017-09-27T07:01:29.817Z,11.97
2017-09-27T07:03:58.878Z,13.77
2017-09-27T07:06:27.939Z,11.83
2017-09-27T07:08:56.987Z,12.00
2017-09-27T07:11:26.037Z,11.77
2017-09-27T07:13:55.095Z,12.93
2017-09-27T07:16:24.183Z,12.53
2017-09-27T07:18:53.243Z,12.60
2017-09-27T07:21:22.286Z,12.10
2017-09-27T07:23:51.354Z,11.63
2017-09-27T07:26:20.406Z,13.13
2017-09-27T07:28:49.463Z,12.33
2017-09-27T07:31:18.510Z,12.63
2017-09-27T07:33:47.619Z,13.33
2017-09-27T07:36:16.689Z,12.90
2017-09-27T07:38:45.813Z,12.77
2017-09-27T07:41:14.877Z,13.83
2017-09-27T07:43:43.931Z,11.93
2017-09-27T07:46:12.997Z,10.73
2017-09-27T07:48:42.052Z,10.97
2017-09-27T07:51:11.183Z,11.87
2017-09-27T07:53:40.623Z,11.30
2017-09-27T07:56:10.570Z,10.83
2017-09-27T07:58:39.969Z,11.43
2017-09-27T08:01:09.045Z,11.30
2017-09-27T08:03:40.236Z,9.77
2017-09-27T08:06:09.851Z,11.60
2017-09-27T08:08:38.932Z,9.10
2017-09-27T08:11:08.226Z,9.97
2017-09-27T08:13:38.268Z,10.37
2017-09-27T08:16:07.327Z,10.50
2017-09-27T08:18:40.150Z,11.00
2017-09-27T08:21:10.416Z,12.33
2017-09-27T08:23:39.475Z,10.40
2017-09-27T08:26:08.630Z,11.40
2017-09-27T08:28:38.562Z,11.67
2017-09-27T08:31:07.654Z,10.70
2017-09-27T08:33:40.027Z,10.47
2017-09-27T08:36:09.832Z,12.67
2017-09-27T08:38:39.915Z,12.17
2017-09-27T08:41:09.681Z,13.20
2017-09-27T08:43:38.721Z,12.80
2017-09-27T08:46:07.791Z,12.10
2017-09-27T08:48:40.022Z,11.67
2017-09-27T08:51:09.703Z,13.00
2017-09-27T08:53:38.746Z,12.10
2017-09-27T08:56:10.162Z,12.70
2017-09-27T08:58:39.261Z,11.70
2017-09-27T09:01:10.641Z,12.23
2017-09-27T09:03:39.950Z,11.93
2017-09-27T09:06:08.979Z,12.53
2017-09-27T09:08:40.966Z,11.73
2017-09-27T09:11:10.953Z,10.43
2017-09-27T09:13:39.994Z,10.97
2017-09-27T09:16:11.606Z,11.07
2017-09-27T09:18:42.947Z,11.37
2017-09-27T09:21:14.586Z,11.90
2017-09-27T09:23:44.409Z,11.17
2017-09-27T09:26:13.459Z,10.90
2017-09-27T09:28:44.055Z,11.07
2017-09-27T09:31:13.871Z,10.73
2017-09-27T09:33:42.955Z,10.40
2017-09-27T09:36:13.181Z,9.97
2017-09-27T09:38:43.234Z,10.00
2017-09-27T09:41:12.282Z,10.83
2017-09-27T09:43:42.341Z,10.27
2017-09-27T09:46:12.144Z,11.23
2017-09-27T09:48:41.203Z,10.10
2017-09-27T09:51:11.540Z,9.80
2017-09-27T09:53:41.295Z,10.20
2017-09-27T09:56:11.767Z,10.77
2017-09-27T09:58:41.910Z,9.13
2017-09-27T10:01:11.652Z,8.90
2017-09-27T10:03:40.670Z,9.93
2017-09-27T10:06:10.978Z,9.70
2017-09-27T10:08:40.027Z,9.30
2017-09-27T10:11:11.442Z,9.67
2017-09-27T10:13:41.433Z,10.97
2017-09-27T10:16:10.505Z,10.30
2017-09-27T10:18:43.071Z,9.90
2017-09-27T10:21:12.960Z,10.43
2017-09-27T10:23:42.014Z,10.80
2017-09-27T10:26:11.102Z,11.43
2017-09-27T10:28:44.659Z,10.90
2017-09-27T10:31:14.722Z,11.00
2017-09-27T10:33:44.788Z,10.50
2017-09-27T10:36:14.133Z,10.80
2017-09-27T10:38:43.170Z,10.00
2017-09-27T10:41:13.111Z,11.77
2017-09-27T10:43:42.210Z,10.87
2017-09-27T10:46:13.839Z,11.13
2017-09-27T10:48:43.792Z,11.30
2017-09-27T10:51:12.826Z,11.97
2017-09-27T10:53:43.673Z,10.93
2017-09-27T10:56:13.406Z,11.33
2017-09-27T10:58:42.465Z,10.90
2017-09-27T11:01:14.483Z,9.40
2017-09-27T11:03:43.535Z,10.73
2017-09-27T11:06:13.431Z,10.40
2017-09-27T11:08:42.617Z,9.67
2017-09-27T11:11:14.279Z,10.63
2017-09-27T11:13:43.702Z,10.27
2017-09-27T11:16:12.930Z,11.50
2017-09-27T11:18:43.860Z,11.33
2017-09-27T11:21:14.176Z,10.60
2017-09-27T11:23:43.194Z,12.07
2017-09-27T11:26:13.947Z,11.10
2017-09-27T11:28:44.732Z,10.27
2017-09-27T11:31:13.791Z,10.90
2017-09-27T11:33:44.683Z,12.33
2017-09-27T11:36:14.076Z,11.30
2017-09-27T11:38:43.204Z,11.00
2017-09-27T11:41:14.021Z,11.07
2017-09-27T11:43:43.055Z,10.50
2017-09-27T11:46:13.439Z,10.97
2017-09-27T11:48:43.231Z,11.37
2017-09-27T11:51:12.307Z,11.17
2017-09-27T11:53:43.047Z,11.33
2017-09-27T11:56:13.247Z,11.83
2017-09-27T11:58:42.405Z,11.17
2017-09-27T12:01:12.371Z,11.20
2017-09-27T12:03:42.222Z,12.00
2017-09-27T12:06:11.419Z,10.47
2017-09-27T12:08:42.596Z,11.23
2017-09-27T12:11:12.490Z,10.20
2017-09-27T12:13:41.711Z,10.70
2017-09-27T12:16:12.202Z,9.50
2017-09-27T12:18:41.365Z,9.30
2017-09-27T12:21:10.430Z,8.67
2017-09-27T12:23:42.307Z,8.30
2017-09-27T12:26:13.633Z,9.57
2017-09-27T12:28:43.582Z,9.73
2017-09-27T12:31:12.900Z,10.13
2017-09-27T12:33:42.663Z,7.43
2017-09-27T12:36:11.718Z,7.47
2017-09-27T12:38:43.618Z,8.60
2017-09-27T12:41:13.154Z,9.30
2017-09-27T12:43:42.199Z,8.67
2017-09-27T12:46:12.902Z,7.90
2017-09-27T12:48:43.123Z,9.47
2017-09-27T12:51:12.533Z,9.37
2017-09-27T12:53:43.146Z,8.00
2017-09-27T12:56:15.684Z,9.07
2017-09-27T12:58:44.697Z,7.73
2017-09-27T13:01:16.075Z,7.60
2017-09-27T13:03:45.200Z,8.37
2017-09-27T13:06:15.056Z,8.67
2017-09-27T13:08:44.705Z,9.00
2017-09-27T13:11:13.758Z,8.47
2017-09-27T13:13:45.011Z,8.53
2017-09-27T13:16:14.691Z,8.70
2017-09-27T13:18:43.727Z,9.03
2017-09-27T13:21:14.211Z,8.70
2017-09-27T13:23:43.910Z,8.20
2017-09-27T13:26:13.054Z,8.30
2017-09-27T13:28:43.667Z,8.20
2017-09-27T13:31:13.564Z,7.53
2017-09-27T13:33:42.599Z,8.37
2017-09-27T13:36:13.248Z,8.50
2017-09-27T13:38:43.094Z,8.23
2017-09-27T13:41:12.147Z,7.07
2017-09-27T13:43:42.876Z,7.50
2017-09-27T13:46:12.846Z,6.40
2017-09-27T13:48:41.892Z,13.43
2017-09-27T13:51:12.530Z,8.30
2017-09-27T13:53:42.230Z,7.73
2017-09-27T13:56:11.257Z,7.87
2017-09-27T13:58:44.185Z,7.70
2017-09-27T14:01:13.996Z,8.30
2017-09-27T14:03:43.019Z,6.30
2017-09-27T14:06:12.058Z,6.60
2017-09-27T14:08:43.211Z,6.13
2017-09-27T14:11:12.930Z,6.97
2017-09-27T14:13:41.976Z,6.67
2017-09-27T14:16:11.548Z,6.27
2017-09-27T14:18:40.616Z,5.83
2017-09-27T14:21:11.923Z,6.40
2017-09-27T14:23:41.585Z,7.77
2017-09-27T14:26:10.801Z,6.20
2017-09-27T14:28:43.699Z,5.10
2017-09-27T14:31:13.421Z,5.17
2017-09-27T14:33:42.551Z,5.63
2017-09-27T14:36:12.769Z,7.07
2017-09-27T14:38:42.631Z,8.50
2017-09-27T14:41:11.679Z,7.33
2017-09-27T14:43:42.364Z,7.03
2017-09-27T14:46:12.035Z,6.20
2017-09-27T14:48:41.096Z,6.10
2017-09-27T14:51:12.176Z,5.73
2017-09-27T14:53:42.237Z,5.70
2017-09-27T14:56:11.259Z,5.37
2017-09-27T14:58:42.021Z,7.03
2017-09-27T15:01:11.044Z,6.07
2017-09-27T15:03:42.057Z,6.87
2017-09-27T15:06:11.682Z,6.37
2017-09-27T15:08:40.703Z,6.23
2017-09-27T15:11:11.498Z,6.30
2017-09-27T15:13:41.808Z,6.43
2017-09-27T15:16:10.846Z,5.20
2017-09-27T15:18:43.294Z,6.60
2017-09-27T15:21:13.399Z,5.97
2017-09-27T15:23:43.443Z,6.40
2017-09-27T15:26:13.739Z,6.30
2017-09-27T15:28:43.440Z,5.43
2017-09-27T15:31:12.593Z,6.40
2017-09-27T15:33:46.457Z,5.70
2017-09-27T15:36:16.189Z,5.17
2017-09-27T15:38:45.234Z,5.03
2017-09-27T15:41:15.927Z,5.43
2017-09-27T15:43:46.084Z,5.40
2017-09-27T15:46:15.139Z,5.50
2017-09-27T15:48:46.482Z,5.67
2017-09-27T15:51:15.966Z,5.30
2017-09-27T15:53:45.116Z,5.97
2017-09-27T15:56:16.039Z,5.70
2017-09-27T15:58:45.066Z,6.00
2017-09-27T16:01:15.113Z,5.63
2017-09-27T16:03:44.234Z,5.60
2017-09-27T16:06:14.553Z,4.93
2017-09-27T16:08:44.711Z,6.10
2017-09-27T16:11:13.755Z,5.30
2017-09-27T16:13:44.358Z,6.10
2017-09-27T16:16:15.336Z,6.67
2017-09-27T16:18:44.378Z,5.73
2017-09-27T16:21:14.524Z,5.43
2017-09-27T16:23:44.595Z,5.07
2017-09-27T16:26:13.826Z,5.50
2017-09-27T16:28:44.315Z,6.13
2017-09-27T16:31:13.429Z,6.40
2017-09-27T16:33:42.517Z,6.67
2017-09-27T16:36:12.197Z,6.37
2017-09-27T16:38:41.312Z,6.43
2017-09-27T16:41:10.378Z,6.10
2017-09-27T16:43:42.408Z,6.57
2017-09-27T16:46:12.326Z,6.10
2017-09-27T16:48:41.417Z,5.50
2017-09-27T16:51:11.753Z,6.47
2017-09-27T16:53:41.545Z,6.20
2017-09-27T16:56:10.673Z,6.10
2017-09-27T16:58:41.186Z,6.00
2017-09-27T17:01:11.109Z,10.00
2017-09-27T17:03:40.193Z,7.70
2017-09-27T17:06:10.999Z,7.03
2017-09-27T17:08:41.259Z,6.87
2017-09-27T17:11:10.394Z,7.10
2017-09-27T17:13:41.166Z,6.87
2017-09-27T17:16:11.297Z,7.13
2017-09-27T17:18:40.347Z,7.10
2017-09-27T17:21:11.021Z,12.73
2017-09-27T17:23:40.798Z,9.67
2017-09-27T17:26:09.823Z,8.47
2017-09-27T17:28:40.728Z,7.47
2017-09-27T17:31:11.759Z,7.73
2017-09-27T17:33:41.381Z,6.80
2017-09-27T17:36:13.780Z,7.80
2017-09-27T17:38:45.404Z,7.83
2017-09-27T17:41:14.979Z,7.93
2017-09-27T17:43:44.510Z,8.70
2017-09-27T17:46:13.536Z,8.30
2017-09-27T17:48:43.452Z,6.67
2017-09-27T17:51:12.474Z,6.40
2017-09-27T17:53:41.512Z,8.20
2017-09-27T17:56:12.996Z,8.23
2017-09-27T17:58:43.038Z,7.17
2017-09-27T18:01:13.218Z,8.77
2017-09-27T18:03:42.311Z,9.73
2017-09-27T18:06:17.626Z,8.30
2017-09-27T18:17:40.544Z,9.27
2017-09-27T18:20:09.639Z,9.40
2017-09-27T18:22:41.323Z,8.80
2017-09-27T18:25:10.678Z,9.70
2017-09-27T18:27:40.758Z,7.80
2017-09-27T18:30:09.891Z,9.83
2017-09-27T18:32:39.915Z,9.00
2017-09-27T18:35:09.048Z,8.67
2017-09-27T18:37:38.108Z,9.07
2017-09-27T18:40:07.181Z,7.93
2017-09-27T18:42:37.121Z,7.73
2017-09-27T18:45:07.183Z,8.40
2017-09-27T18:47:37.223Z,9.97
2017-09-27T18:50:06.295Z,9.47
2017-09-27T18:52:35.429Z,8.97
2017-09-27T18:55:04.476Z,9.80
2017-09-27T18:57:33.547Z,8.80
2017-09-27T19:00:02.635Z,11.17
2017-09-27T19:02:31.726Z,9.60
2017-09-27T19:05:01.748Z,9.83
2017-09-27T19:07:30.842Z,10.23
2017-09-27T19:09:59.890Z,10.13
2017-09-27T19:12:29.914Z,11.23
2017-09-27T19:15:00.056Z,10.10
2017-09-27T19:17:32.795Z,11.20
2017-09-27T19:20:02.160Z,11.83
2017-09-27T19:22:31.540Z,11.40
2017-09-27T19:25:03.471Z,9.80
2017-09-27T19:27:32.614Z,10.77
2017-09-27T19:30:01.655Z,11.80
2017-09-27T19:32:31.784Z,11.67
2017-09-27T19:35:02.518Z,10.70
2017-09-27T19:37:32.650Z,9.77
2017-09-27T19:40:01.832Z,7.90
2017-09-27T19:42:30.923Z,8.80
2017-09-27T19:44:59.971Z,8.80
2017-09-27T19:47:29.646Z,10.50
2017-09-27T19:49:58.746Z,9.43
2017-09-27T19:52:29.418Z,10.57
2017-09-27T19:54:58.495Z,11.73
2017-09-27T19:57:27.694Z,9.50
2017-09-27T19:59:56.779Z,10.13
2017-09-27T20:02:25.855Z,11.60
2017-09-27T20:04:55.583Z,10.13
2017-09-27T20:07:24.690Z,11.63
2017-09-27T20:09:55.555Z,10.70
2017-09-27T20:12:24.634Z,10.73
2017-09-27T20:14:53.686Z,11.20
2017-09-27T20:17:22.831Z,11.53
2017-09-27T20:19:51.891Z,10.97
2017-09-27T20:22:20.947Z,11.83
2017-09-27T20:24:49.991Z,11.07
2017-09-27T20:27:19.175Z,11.60
2017-09-27T20:29:48.215Z,12.90
2017-09-27T20:32:17.273Z,11.10
2017-09-27T20:34:46.355Z,10.30
2017-09-27T20:37:15.443Z,8.37
2017-09-27T20:39:44.489Z,8.90
2017-09-27T20:42:13.653Z,7.10
2017-09-27T20:44:43.692Z,7.60
2017-09-27T20:47:12.740Z,8.13
2017-09-27T20:49:41.798Z,7.90
2017-09-27T20:52:10.834Z,9.50
2017-09-27T20:54:39.906Z,7.80
2017-09-27T20:57:08.957Z,8.03
2017-09-27T20:59:37.995Z,7.97
2017-09-27T21:02:07.074Z,7.83
2017-09-27T21:07:15.095Z,9.87
2017-09-27T21:09:44.170Z,9.33
2017-09-27T21:12:13.451Z,10.17
2017-09-27T21:14:42.482Z,8.63
2017-09-27T21:17:11.535Z,10.83
2017-09-27T21:19:40.604Z,12.53
2017-09-27T21:22:09.642Z,11.80
2017-09-27T21:24:38.679Z,13.93
2017-09-27T21:27:07.710Z,18.70
2017-09-27T21:29:36.769Z,14.17
2017-09-27T21:32:06.113Z,13.27
2017-09-27T21:34:35.167Z,11.50
2017-09-27T21:37:04.468Z,12.77
2017-09-27T21:39:33.495Z,13.07
2017-09-27T21:42:02.541Z,13.57
2017-09-27T21:44:31.632Z,11.63
2017-09-27T21:47:00.681Z,13.70
2017-09-27T21:49:29.718Z,12.97
2017-09-27T21:51:59.697Z,10.10
2017-09-27T21:54:29.638Z,12.57
2017-09-27T21:56:58.682Z,11.57
2017-09-27T21:59:27.747Z,11.37
2017-09-27T22:01:56.859Z,14.00
2017-09-27T22:04:26.571Z,11.63
2017-09-27T22:06:56.950Z,14.40
2017-09-27T22:09:26.921Z,13.30
2017-09-27T22:11:56.042Z,13.87
2017-09-27T22:14:27.726Z,12.17
2017-09-27T22:16:58.261Z,17.10
2017-09-27T22:19:27.741Z,13.47
2017-09-27T22:21:56.875Z,15.73
2017-09-27T22:24:26.124Z,16.10
2017-09-27T22:26:55.520Z,13.87
2017-09-27T22:29:25.210Z,8.63
2017-09-27T22:31:54.263Z,7.77
2017-09-27T22:34:24.160Z,9.83
2017-09-27T22:36:53.188Z,8.80
2017-09-27T22:39:24.931Z,10.57
2017-09-27T22:41:54.398Z,10.07
2017-09-27T22:44:23.569Z,10.80
2017-09-27T22:46:54.154Z,10.80
2017-09-27T22:49:23.672Z,10.43
2017-09-27T22:51:56.169Z,11.67
2017-09-27T22:54:27.574Z,11.53
2017-09-27T22:56:57.304Z,13.00
2017-09-27T22:59:26.342Z,10.90
2017-09-27T23:01:56.933Z,12.90
2017-09-27T23:04:26.030Z,12.50
2017-09-27T23:06:56.643Z,13.00
2017-09-27T23:09:26.246Z,12.80
2017-09-27T23:11:55.267Z,11.40
2017-09-27T23:14:25.226Z,13.37
2017-09-27T23:16:54.295Z,14.63
2017-09-27T23:19:24.346Z,13.60
2017-09-27T23:21:55.639Z,15.80
2017-09-27T23:24:24.705Z,16.80
2017-09-27T23:26:53.746Z,16.67
2017-09-27T23:29:22.802Z,19.83
2017-09-27T23:31:51.887Z,22.63
2017-09-27T23:34:20.922Z,21.00
2017-09-27T23:36:49.999Z,22.70
2017-09-27T23:39:20.071Z,21.63
2017-09-27T23:41:49.110Z,22.30
2017-09-27T23:44:18.158Z,21.93
2017-09-27T23:46:47.294Z,19.30
2017-09-27T23:49:17.231Z,17.40
2017-09-27T23:51:46.286Z,14.87
2017-09-27T23:54:15.707Z,12.60
2017-09-27T23:56:44.758Z,15.33
2017-09-27T23:59:13.790Z,15.50
